createdAt,value
2022-08-17T00:02:26.501Z,22.55
2022-08-17T00:04:50.340Z,22.53
2022-08-17T00:07:20.089Z,22.49
2022-08-17T00:09:52.986Z,22.47
2022-08-17T00:12:41.925Z,22.47
2022-08-17T00:15:00.415Z,22.45
2022-08-17T00:17:33.649Z,22.40
2022-08-17T00:20:07.502Z,22.37
2022-08-17T00:22:40.898Z,22.36
2022-08-17T00:25:19.871Z,22.36
2022-08-17T00:27:52.854Z,22.40
2022-08-17T00:30:26.978Z,22.44
2022-08-17T00:33:12.189Z,22.46
2022-08-17T00:35:34.444Z,22.45
2022-08-17T00:38:09.274Z,22.41
2022-08-17T00:40:47.080Z,22.36
2022-08-17T00:43:44.375Z,22.32
2022-08-17T00:46:21.476Z,22.32
2022-08-17T00:48:54.898Z,22.35
2022-08-17T00:51:44.887Z,22.36
2022-08-17T00:54:41.650Z,22.40
2022-08-17T00:57:28.665Z,22.39
2022-08-17T01:00:09.281Z,22.40
2022-08-17T01:02:44.972Z,22.39
2022-08-17T01:05:21.477Z,22.36
2022-08-17T01:07:56.189Z,22.35
2022-08-17T01:11:00.334Z,22.37
2022-08-17T01:13:11.624Z,22.38
2022-08-17T01:15:56.224Z,22.39
2022-08-17T01:18:29.458Z,22.36
2022-08-17T01:21:06.796Z,22.33
2022-08-17T01:23:41.568Z,22.31
2022-08-17T01:26:14.684Z,22.32
2022-08-17T01:28:54.048Z,22.30
2022-08-17T01:31:22.622Z,22.22
2022-08-17T01:33:56.136Z,22.14
2022-08-17T01:36:29.166Z,22.09
2022-08-17T01:39:02.064Z,22.07
2022-08-17T01:41:35.210Z,22.05
2022-08-17T01:44:09.728Z,22.05
2022-08-17T01:46:42.909Z,22.02
2022-08-17T01:49:16.359Z,22.01
2022-08-17T01:51:49.547Z,21.98
2022-08-17T01:54:22.809Z,21.99
2022-08-17T01:56:55.740Z,22.01
2022-08-17T01:59:28.776Z,22.03
2022-08-17T02:02:02.929Z,22.05
2022-08-17T02:04:37.472Z,22.06
2022-08-17T02:07:10.450Z,22.03
2022-08-17T02:09:44.178Z,21.97
2022-08-17T02:12:37.991Z,21.88
2022-08-17T02:14:54.620Z,21.76
2022-08-17T02:17:27.501Z,21.69
2022-08-17T02:20:00.913Z,21.71
2022-08-17T02:22:34.119Z,21.70
2022-08-17T02:25:09.604Z,21.67
2022-08-17T02:27:42.738Z,21.59
2022-08-17T02:30:58.956Z,21.52
2022-08-17T02:32:53.994Z,21.49
2022-08-17T02:35:26.864Z,21.50
2022-08-17T02:37:59.688Z,21.52
2022-08-17T02:40:35.671Z,21.51
2022-08-17T02:43:10.097Z,21.53
2022-08-17T02:45:44.450Z,21.51
2022-08-17T02:48:17.383Z,21.47
2022-08-17T02:50:51.983Z,21.44
2022-08-17T02:53:25.646Z,21.48
2022-08-17T02:55:58.852Z,21.50
2022-08-17T02:58:35.292Z,21.55
2022-08-17T03:01:09.150Z,21.62
2022-08-17T03:03:42.349Z,21.69
2022-08-17T03:06:15.126Z,21.73
2022-08-17T03:08:48.802Z,21.77
2022-08-17T03:11:22.662Z,21.79
2022-08-17T03:13:55.889Z,21.84
2022-08-17T03:16:29.016Z,21.89
2022-08-17T03:19:01.998Z,21.92
2022-08-17T03:21:35.294Z,21.97
2022-08-17T03:24:09.288Z,22.00
2022-08-17T03:26:43.053Z,22.02
2022-08-17T03:29:18.126Z,22.05
2022-08-17T03:31:52.627Z,22.05
2022-08-17T03:34:25.638Z,22.08
2022-08-17T03:36:58.549Z,22.13
2022-08-17T03:39:31.554Z,22.22
2022-08-17T03:42:31.352Z,22.35
2022-08-17T03:44:51.585Z,22.47
2022-08-17T03:47:44.339Z,22.59
2022-08-17T03:50:20.779Z,22.79
2022-08-17T03:53:11.455Z,22.79
2022-08-17T03:56:02.598Z,22.91
2022-08-17T03:58:37.264Z,23.01
2022-08-17T04:01:10.450Z,23.17
2022-08-17T04:03:43.602Z,23.26
2022-08-17T04:06:16.844Z,23.37
2022-08-17T04:08:49.985Z,23.46
2022-08-17T04:11:22.999Z,23.53
2022-08-17T04:13:57.117Z,23.52
2022-08-17T04:16:30.792Z,23.46
2022-08-17T04:19:05.237Z,23.46
2022-08-17T04:21:38.200Z,23.44
2022-08-17T04:24:11.045Z,23.42
2022-08-17T04:26:53.102Z,23.43
2022-08-17T04:29:18.315Z,23.45
2022-08-17T04:31:51.209Z,23.49
2022-08-17T04:34:25.448Z,23.49
2022-08-17T04:36:58.359Z,23.48
2022-08-17T04:39:33.831Z,23.45
2022-08-17T04:42:11.095Z,23.43
2022-08-17T04:44:44.383Z,23.44
2022-08-17T04:47:17.447Z,23.49
2022-08-17T04:49:50.509Z,23.53
2022-08-17T04:52:29.864Z,23.57
2022-08-17T04:54:58.200Z,23.63
2022-08-17T04:57:31.620Z,23.69
2022-08-17T05:00:09.036Z,23.74
2022-08-17T05:02:53.405Z,23.77
2022-08-17T05:05:27.750Z,23.76
2022-08-17T05:08:03.666Z,23.80
2022-08-17T05:10:45.470Z,23.83
2022-08-17T05:13:18.394Z,23.88
2022-08-17T05:16:03.529Z,23.93
2022-08-17T05:18:39.160Z,24.00
2022-08-17T05:21:12.183Z,24.05
2022-08-17T05:23:47.187Z,24.06
2022-08-17T05:26:26.953Z,24.09
2022-08-17T05:29:00.456Z,24.15
2022-08-17T05:31:34.921Z,24.24
2022-08-17T05:34:07.781Z,24.29
2022-08-17T05:36:43.907Z,24.31
2022-08-17T05:39:17.440Z,24.32
2022-08-17T05:41:50.274Z,24.31
2022-08-17T05:44:23.759Z,24.31
2022-08-17T05:46:57.091Z,24.37
2022-08-17T05:49:30.988Z,24.44
2022-08-17T05:52:22.767Z,24.51
2022-08-17T05:55:18.203Z,24.55
2022-08-17T05:58:24.433Z,24.56
2022-08-17T06:01:04.781Z,24.61
2022-08-17T06:04:00.122Z,24.67
2022-08-17T06:06:46.882Z,24.76
2022-08-17T06:09:42.370Z,24.82
2022-08-17T06:12:49.142Z,24.91
2022-08-17T06:16:04.694Z,25.02
2022-08-17T06:18:52.850Z,25.15
2022-08-17T06:21:27.450Z,25.23
2022-08-17T06:24:38.252Z,25.32
2022-08-17T06:27:45.155Z,25.37
2022-08-17T06:30:57.597Z,25.42
2022-08-17T06:33:13.377Z,25.49
2022-08-17T06:36:19.717Z,25.53
2022-08-17T06:39:02.721Z,25.58
2022-08-17T06:41:39.109Z,25.66
2022-08-17T06:44:43.434Z,25.71
2022-08-17T06:47:01.444Z,25.74
2022-08-17T06:49:55.199Z,25.81
2022-08-17T06:52:46.407Z,25.87
2022-08-17T06:55:19.720Z,25.94
2022-08-17T06:57:56.852Z,26.01
2022-08-17T07:00:36.269Z,26.07
2022-08-17T07:03:18.733Z,26.13
2022-08-17T07:06:01.562Z,26.20
2022-08-17T07:09:13.065Z,26.26
2022-08-17T07:12:15.309Z,26.32
2022-08-17T07:15:05.885Z,26.36
2022-08-17T07:17:47.357Z,26.41
2022-08-17T07:20:20.813Z,26.46
2022-08-17T07:23:07.156Z,26.51
2022-08-17T07:25:40.489Z,26.57
2022-08-17T07:28:14.108Z,26.62
2022-08-17T07:30:53.498Z,26.69
2022-08-17T07:33:30.738Z,26.69
2022-08-17T07:36:04.725Z,26.74
2022-08-17T07:38:40.489Z,26.77
2022-08-17T07:41:14.220Z,26.82
2022-08-17T07:43:52.872Z,26.87
2022-08-17T07:46:54.426Z,26.93
2022-08-17T07:49:38.805Z,26.97
2022-08-17T07:52:48.261Z,27.02
2022-08-17T07:54:51.091Z,27.07
2022-08-17T07:57:34.067Z,27.13
2022-08-17T08:00:16.284Z,27.18
2022-08-17T08:02:51.512Z,27.22
2022-08-17T08:05:46.633Z,27.26
2022-08-17T08:08:07.086Z,27.30
2022-08-17T08:10:45.498Z,27.36
2022-08-17T08:13:25.316Z,27.41
2022-08-17T08:16:30.711Z,27.48
2022-08-17T08:19:06.213Z,27.56
2022-08-17T08:21:52.889Z,27.62
2022-08-17T08:24:51.850Z,27.70
2022-08-17T08:28:09.030Z,27.78
2022-08-17T08:30:47.316Z,27.83
2022-08-17T08:33:25.527Z,27.87
2022-08-17T08:36:14.668Z,27.93
2022-08-17T08:38:57.062Z,28.01
2022-08-17T08:41:52.707Z,28.05
2022-08-17T08:45:00.718Z,28.09
2022-08-17T08:48:06.017Z,28.17
2022-08-17T08:51:03.368Z,28.26
2022-08-17T08:53:49.555Z,28.36
2022-08-17T08:57:23.907Z,28.40
2022-08-17T08:59:54.146Z,28.42
2022-08-17T09:02:44.713Z,28.47
2022-08-17T09:05:54.394Z,28.50
2022-08-17T09:08:55.796Z,28.58
2022-08-17T09:11:36.201Z,28.66
2022-08-17T09:14:45.431Z,28.72
2022-08-17T09:17:18.434Z,28.72
2022-08-17T09:20:08.105Z,28.67
2022-08-17T09:22:45.670Z,28.67
2022-08-17T09:25:32.263Z,28.71
2022-08-17T09:28:09.603Z,28.66
2022-08-17T09:30:53.855Z,28.67
2022-08-17T09:33:27.203Z,28.70
2022-08-17T09:36:06.964Z,28.76
2022-08-17T09:39:07.028Z,28.81
2022-08-17T09:41:48.906Z,28.88
2022-08-17T09:44:30.318Z,28.94
2022-08-17T09:47:30.923Z,29.00
2022-08-17T09:50:08.385Z,29.04
2022-08-17T09:52:42.321Z,29.13
2022-08-17T09:55:14.284Z,29.21
2022-08-17T09:58:11.033Z,29.23
2022-08-17T10:00:48.750Z,29.16
2022-08-17T10:04:00.783Z,29.11
2022-08-17T10:06:38.296Z,29.14
2022-08-17T10:09:22.754Z,29.20
2022-08-17T10:12:19.754Z,29.29
2022-08-17T10:15:08.159Z,29.33
2022-08-17T10:17:56.683Z,29.41
2022-08-17T10:20:48.971Z,29.50
2022-08-17T10:23:46.314Z,29.55
2022-08-17T10:26:25.249Z,29.56
2022-08-17T10:29:08.184Z,29.61
2022-08-17T10:31:51.416Z,29.69
2022-08-17T10:35:00.347Z,29.77
2022-08-17T10:37:41.578Z,29.85
2022-08-17T10:40:49.605Z,30.02
2022-08-17T10:43:58.907Z,30.17
2022-08-17T10:46:57.819Z,30.36
2022-08-17T10:49:34.552Z,30.47
2022-08-17T10:52:30.893Z,30.52
2022-08-17T10:55:18.219Z,30.59
2022-08-17T10:57:53.506Z,30.64
2022-08-17T11:00:46.686Z,30.71
2022-08-17T11:03:25.517Z,30.73
2022-08-17T11:06:17.908Z,30.79
2022-08-17T11:09:47.603Z,30.87
2022-08-17T11:12:35.939Z,30.93
2022-08-17T11:15:34.956Z,30.95
2022-08-17T11:18:45.281Z,30.98
2022-08-17T11:22:06.186Z,31.00
2022-08-17T11:24:45.919Z,31.07
2022-08-17T11:27:31.589Z,31.13
2022-08-17T11:30:17.340Z,31.14
2022-08-17T11:32:54.433Z,31.11
2022-08-17T11:35:41.043Z,31.07
2022-08-17T11:38:23.316Z,31.08
2022-08-17T11:41:15.819Z,31.07
2022-08-17T11:43:59.438Z,31.06
2022-08-17T11:46:59.170Z,31.05
2022-08-17T11:50:27.243Z,31.08
2022-08-17T11:52:58.106Z,31.12
2022-08-17T11:55:44.334Z,31.11
2022-08-17T11:58:36.342Z,31.03
2022-08-17T12:01:16.626Z,30.96
2022-08-17T12:03:54.056Z,30.91
2022-08-17T12:06:32.419Z,30.93
2022-08-17T12:09:12.599Z,30.94
2022-08-17T12:12:12.909Z,30.91
2022-08-17T12:15:08.515Z,30.88
2022-08-17T12:17:33.606Z,30.92
2022-08-17T12:19:50.089Z,30.98
2022-08-17T12:22:33.625Z,31.08
2022-08-17T12:25:31.685Z,31.11
2022-08-17T12:28:07.796Z,31.04
2022-08-17T12:30:41.937Z,30.90
2022-08-17T12:33:25.360Z,30.80
2022-08-17T12:35:55.073Z,30.74
2022-08-17T12:38:33.332Z,30.76
2022-08-17T12:41:03.189Z,30.81
2022-08-17T12:43:36.105Z,30.85
2022-08-17T12:46:14.881Z,30.92
2022-08-17T12:48:58.837Z,31.00
2022-08-17T12:51:19.314Z,31.09
2022-08-17T12:53:55.957Z,31.10
2022-08-17T12:56:30.198Z,31.05
2022-08-17T12:59:03.256Z,30.98
2022-08-17T13:01:39.131Z,30.96
2022-08-17T13:04:15.198Z,31.02
2022-08-17T13:06:52.126Z,31.10
2022-08-17T13:09:35.868Z,31.15
2022-08-17T13:12:06.459Z,31.19
2022-08-17T13:14:47.206Z,31.24
2022-08-17T13:17:30.654Z,31.30
2022-08-17T13:20:06.923Z,31.37
2022-08-17T13:22:43.179Z,31.43
2022-08-17T13:25:18.528Z,31.46
2022-08-17T13:27:54.088Z,31.48
2022-08-17T13:30:32.479Z,31.50
2022-08-17T13:33:06.967Z,31.47
2022-08-17T13:35:50.448Z,31.50
2022-08-17T13:38:47.072Z,31.57
2022-08-17T13:41:39.213Z,31.57
2022-08-17T13:44:39.615Z,31.58
2022-08-17T13:47:20.775Z,31.62
2022-08-17T13:49:55.620Z,31.65
2022-08-17T13:52:41.459Z,31.69
2022-08-17T13:55:22.690Z,31.70
2022-08-17T13:58:06.763Z,31.69
2022-08-17T14:00:36.583Z,31.69
2022-08-17T14:03:09.729Z,31.66
2022-08-17T14:05:42.715Z,31.66
2022-08-17T14:08:17.791Z,31.71
2022-08-17T14:10:55.242Z,31.76
2022-08-17T14:13:29.036Z,31.78
2022-08-17T14:16:02.168Z,31.79
2022-08-17T14:18:55.850Z,31.77
2022-08-17T14:21:11.313Z,31.79
2022-08-17T14:23:52.675Z,31.82
2022-08-17T14:26:19.570Z,31.81
2022-08-17T14:28:56.179Z,31.75
2022-08-17T14:31:27.991Z,31.64
2022-08-17T14:34:01.192Z,31.58
2022-08-17T14:36:34.853Z,31.55
2022-08-17T14:39:08.088Z,31.58
2022-08-17T14:41:42.718Z,31.64
2022-08-17T14:44:15.769Z,31.70
2022-08-17T14:46:50.254Z,31.73
2022-08-17T14:49:23.134Z,31.74
2022-08-17T14:51:56.043Z,31.62
2022-08-17T14:54:34.311Z,31.47
2022-08-17T14:57:23.262Z,31.42
2022-08-17T14:59:40.421Z,31.42
2022-08-17T15:02:14.022Z,31.51
2022-08-17T15:04:48.248Z,31.56
2022-08-17T15:07:25.131Z,31.54
2022-08-17T15:10:00.880Z,31.47
2022-08-17T15:12:34.806Z,31.39
2022-08-17T15:15:10.471Z,31.28
2022-08-17T15:17:45.997Z,31.17
2022-08-17T15:20:24.028Z,31.05
2022-08-17T15:22:57.785Z,30.91
2022-08-17T15:25:32.086Z,30.74
2022-08-17T15:28:05.346Z,30.57
2022-08-17T15:30:38.600Z,30.39
2022-08-17T15:33:18.006Z,30.23
2022-08-17T15:35:54.980Z,30.08
2022-08-17T15:38:28.919Z,29.96
2022-08-17T15:41:02.742Z,29.88
2022-08-17T15:43:38.759Z,29.79
2022-08-17T15:46:21.459Z,29.69
2022-08-17T15:48:59.422Z,29.61
2022-08-17T15:51:35.869Z,29.53
2022-08-17T15:54:19.067Z,29.48
2022-08-17T15:56:46.724Z,29.42
2022-08-17T15:59:19.606Z,29.39
2022-08-17T16:03:13.848Z,29.36
2022-08-17T16:04:31.046Z,29.32
2022-08-17T16:07:02.719Z,29.30
2022-08-17T16:09:39.246Z,29.29
2022-08-17T16:12:17.023Z,29.29
2022-08-17T16:14:53.576Z,29.27
2022-08-17T16:17:39.165Z,29.25
2022-08-17T16:20:01.480Z,29.22
2022-08-17T16:22:38.277Z,29.17
2022-08-17T16:25:19.081Z,29.10
2022-08-17T16:27:53.841Z,29.01
2022-08-17T16:30:30.266Z,28.90
2022-08-17T16:33:04.210Z,28.81
2022-08-17T16:35:37.160Z,28.72
2022-08-17T16:38:11.172Z,28.61
2022-08-17T16:40:44.293Z,28.53
2022-08-17T16:43:17.605Z,28.45
2022-08-17T16:45:52.228Z,28.37
2022-08-17T16:48:25.522Z,28.29
2022-08-17T16:51:03.485Z,28.24
2022-08-17T16:53:34.463Z,28.18
2022-08-17T16:56:07.710Z,28.11
2022-08-17T16:58:40.961Z,28.05
2022-08-17T17:01:16.119Z,27.98
2022-08-17T17:03:58.062Z,27.92
2022-08-17T17:06:55.446Z,27.89
2022-08-17T17:09:32.455Z,27.84
2022-08-17T17:12:09.527Z,27.79
2022-08-17T17:14:46.260Z,27.76
2022-08-17T17:17:35.992Z,27.73
2022-08-17T17:20:22.110Z,27.70
2022-08-17T17:23:02.451Z,27.67
2022-08-17T17:25:49.012Z,27.62
2022-08-17T17:29:09.243Z,27.59
2022-08-17T17:31:49.884Z,27.55
2022-08-17T17:34:23.466Z,27.50
2022-08-17T17:36:59.309Z,27.44
2022-08-17T17:39:55.196Z,27.42
2022-08-17T17:42:31.067Z,27.38
2022-08-17T17:45:17.563Z,27.34
2022-08-17T17:47:53.943Z,27.31
2022-08-17T17:50:41.062Z,27.27
2022-08-17T17:53:22.610Z,27.23
2022-08-17T17:56:06.651Z,27.18
2022-08-17T17:59:11.205Z,27.14
2022-08-17T18:02:10.061Z,27.08
2022-08-17T18:04:51.370Z,27.00
2022-08-17T18:07:37.863Z,26.95
2022-08-17T18:10:31.680Z,26.92
2022-08-17T18:13:50.908Z,26.86
2022-08-17T18:16:25.329Z,26.80
2022-08-17T18:18:58.264Z,26.74
2022-08-17T18:21:42.147Z,26.71
2022-08-17T18:24:15.873Z,26.68
2022-08-17T18:26:53.401Z,26.65
2022-08-17T18:29:45.874Z,26.62
2022-08-17T18:32:42.340Z,26.60
2022-08-17T18:35:24.117Z,26.57
2022-08-17T18:41:05.057Z,26.60
2022-08-17T18:43:52.895Z,26.52
2022-08-17T18:46:30.599Z,26.52
2022-08-17T18:49:08.751Z,26.52
2022-08-17T18:51:44.348Z,26.48
2022-08-17T18:54:27.739Z,26.47
2022-08-17T18:57:02.490Z,26.39
2022-08-17T18:59:47.453Z,26.33
2022-08-17T19:02:43.327Z,26.30
2022-08-17T19:05:11.008Z,26.27
2022-08-17T19:07:48.201Z,26.23
2022-08-17T19:10:29.114Z,26.18
2022-08-17T19:13:13.961Z,26.14
2022-08-17T19:16:14.360Z,26.12
2022-08-17T19:18:41.770Z,26.08
2022-08-17T19:21:23.144Z,26.04
2022-08-17T19:24:19.976Z,26.00
2022-08-17T19:27:03.323Z,25.99
2022-08-17T19:30:07.802Z,25.95
2022-08-17T19:32:38.431Z,25.92
2022-08-17T19:35:17.352Z,25.90
2022-08-17T19:38:04.551Z,25.84
2022-08-17T19:40:53.990Z,25.81
2022-08-17T19:43:53.885Z,25.75
2022-08-17T19:46:37.375Z,25.70
2022-08-17T19:49:33.415Z,25.66
2022-08-17T19:52:16.580Z,25.62
2022-08-17T19:55:00.685Z,25.60
2022-08-17T19:58:18.130Z,25.57
2022-08-17T20:00:54.821Z,25.51
2022-08-17T20:03:53.426Z,25.43
2022-08-17T20:06:27.617Z,25.37
2022-08-17T20:09:15.325Z,25.33
2022-08-17T20:11:57.911Z,25.30
2022-08-17T20:14:41.701Z,25.28
2022-08-17T20:17:16.408Z,25.28
2022-08-17T20:19:59.524Z,25.27
2022-08-17T20:22:46.719Z,25.25
2022-08-17T20:25:36.806Z,25.25
2022-08-17T20:28:29.817Z,25.22
2022-08-17T20:31:05.038Z,25.18
2022-08-17T20:33:39.729Z,25.13
2022-08-17T20:36:22.739Z,25.10
2022-08-17T20:38:58.689Z,25.08
2022-08-17T20:41:33.231Z,25.06
2022-08-17T20:44:07.700Z,25.02
2022-08-17T20:46:45.377Z,24.97
2022-08-17T20:49:32.063Z,24.91
2022-08-17T20:52:13.737Z,24.87
2022-08-17T20:54:53.968Z,24.86
2022-08-17T20:57:40.197Z,24.88
2022-08-17T21:00:32.910Z,24.89
2022-08-17T21:03:28.480Z,24.89
2022-08-17T21:06:17.645Z,24.88
2022-08-17T21:08:54.586Z,24.86
2022-08-17T21:11:57.134Z,24.84
2022-08-17T21:14:29.309Z,24.85
2022-08-17T21:17:38.555Z,24.87
2022-08-17T21:20:32.608Z,24.89
2022-08-17T21:23:33.688Z,24.90
2022-08-17T21:26:50.130Z,24.91
2022-08-17T21:29:30.811Z,24.92
2022-08-17T21:32:12.208Z,24.93
2022-08-17T21:35:07.097Z,24.91
2022-08-17T21:37:48.913Z,24.86
2022-08-17T21:40:31.215Z,24.85
2022-08-17T21:43:17.475Z,24.85
2022-08-17T21:46:06.479Z,24.84
2022-08-17T21:48:49.947Z,24.85
2022-08-17T21:51:30.396Z,24.84
2022-08-17T21:54:25.963Z,24.83
2022-08-17T21:56:59.573Z,24.83
2022-08-17T21:59:38.905Z,24.80
2022-08-17T22:02:25.660Z,24.80
2022-08-17T22:05:11.879Z,24.77
2022-08-17T22:07:50.917Z,24.75
2022-08-17T22:10:39.795Z,24.70
2022-08-17T22:13:22.417Z,24.68
2022-08-17T22:16:29.509Z,24.65
2022-08-17T22:18:53.844Z,24.64
2022-08-17T22:21:27.081Z,24.64
2022-08-17T22:24:20.917Z,24.60
2022-08-17T22:27:13.090Z,24.56
2022-08-17T22:30:01.091Z,24.52
2022-08-17T22:32:47.313Z,24.49
2022-08-17T22:35:31.656Z,24.48
2022-08-17T22:38:26.527Z,24.50
2022-08-17T22:41:09.750Z,24.49
2022-08-17T22:43:44.683Z,24.48
2022-08-17T22:46:17.678Z,24.46
2022-08-17T22:48:56.143Z,24.44
2022-08-17T22:51:31.351Z,24.42
2022-08-17T22:54:25.878Z,24.42
2022-08-17T22:57:19.875Z,24.43
2022-08-17T22:59:56.143Z,24.41
2022-08-17T23:02:32.538Z,24.38
2022-08-17T23:05:19.049Z,24.34
2022-08-17T23:07:53.626Z,24.33
2022-08-17T23:10:28.605Z,24.33
2022-08-17T23:13:03.243Z,24.32
2022-08-17T23:15:37.837Z,24.30
2022-08-17T23:18:09.967Z,24.28
2022-08-17T23:20:43.472Z,24.25
2022-08-17T23:23:18.797Z,24.21
2022-08-17T23:25:51.290Z,24.17
2022-08-17T23:28:24.164Z,24.13
2022-08-17T23:30:56.933Z,24.10
2022-08-17T23:33:36.146Z,24.09
2022-08-17T23:36:12.557Z,24.10
2022-08-17T23:38:48.652Z,24.07
2022-08-17T23:41:23.393Z,24.03
2022-08-17T23:43:56.279Z,24.00
2022-08-17T23:46:29.266Z,23.96
2022-08-17T23:49:03.523Z,23.94
2022-08-17T23:51:41.412Z,23.90
2022-08-17T23:54:27.699Z,23.87
2022-08-17T23:57:01.569Z,23.85
2022-08-17T23:59:37.029Z,23.80
